Time;durP1;ratioP1;P1;durP2;ratioP2;P2;SDS_P1;SDS_P2;PMS_P1;PMS_P2;Temp;Humidity;BMP_temperature;BMP_pressure;BME280_temperature;BME280_humidity;BME280_pressure;Samples;Min_cycle;Max_cycle;Signal;HPM_P1;HPM_P2
2023/07/04 00:01:01;;;;;;;1999.90;999.90;;;;;;;17.45;100.00;97835.16;5090816;28;20366;-75
2023/07/04 00:03:28;;;;;;;1999.90;999.90;;;;;;;17.41;100.00;97836.22;5088953;28;20028;-74
2023/07/04 00:05:54;;;;;;;1999.90;999.90;;;;;;;17.49;100.00;97836.09;5089793;28;20110;-75
2023/07/04 00:08:23;;;;;;;1999.90;999.90;;;;;;;17.54;100.00;97837.84;5090234;28;20028;-75
2023/07/04 00:10:50;;;;;;;1999.90;999.90;;;;;;;17.41;100.00;97830.69;5090023;28;20074;-75
2023/07/04 00:13:17;;;;;;;1999.90;999.90;;;;;;;17.33;100.00;97829.59;5090242;28;20032;-75
2023/07/04 00:15:44;;;;;;;1999.90;999.90;;;;;;;17.29;100.00;97827.88;5091057;28;20016;-75
2023/07/04 00:18:09;;;;;;;1999.90;999.90;;;;;;;17.37;100.00;97841.63;5094088;28;20043;-74
2023/07/04 00:20:37;;;;;;;1999.90;999.90;;;;;;;17.40;100.00;97843.69;5092466;28;20469;-77
2023/07/04 00:23:03;;;;;;;1999.90;999.90;;;;;;;17.46;100.00;97844.28;5093748;28;20028;-77
2023/07/04 00:25:28;;;;;;;1999.90;999.90;;;;;;;17.50;100.00;97847.97;5093760;28;20524;-76
2023/07/04 00:27:54;;;;;;;1999.90;999.90;;;;;;;17.54;100.00;97848.91;5093882;28;20011;-76
2023/07/04 00:30:20;;;;;;;1999.90;999.90;;;;;;;17.52;100.00;97842.91;5094149;28;20607;-76
2023/07/04 00:32:45;;;;;;;1999.90;999.90;;;;;;;17.59;100.00;97851.47;5094456;28;20035;-76
2023/07/04 00:35:11;;;;;;;1999.90;999.90;;;;;;;17.61;100.00;97849.97;5095362;28;20027;-75
2023/07/04 00:37:36;;;;;;;1999.90;999.90;;;;;;;17.70;100.00;97852.63;5094412;28;20039;-76
2023/07/04 00:40:05;;;;;;;1999.90;999.90;;;;;;;17.55;100.00;97847.78;5093645;28;20110;-76
2023/07/04 00:42:34;;;;;;;1999.90;999.90;;;;;;;17.63;100.00;97863.47;5093575;28;20031;-76
2023/07/04 00:44:59;;;;;;;1999.90;999.90;;;;;;;17.58;100.00;97863.69;5093363;28;21043;-77
2023/07/04 00:47:42;;;;;;;1999.90;999.90;;;;;;;17.58;100.00;97875.56;5091837;28;20048;-77
2023/07/04 00:50:09;;;;;;;1999.90;999.90;;;;;;;17.58;100.00;97883.06;5093499;28;20461;-77
2023/07/04 00:52:36;;;;;;;1999.90;999.90;;;;;;;17.58;100.00;97875.56;5096696;28;20538;-75
2023/07/04 00:55:07;;;;;;;1999.90;999.90;;;;;;;17.48;100.00;97864.09;5093363;28;20027;-75
2023/07/04 00:57:33;;;;;;;1999.90;999.90;;;;;;;17.56;100.00;97868.75;5093231;28;20112;-75
2023/07/04 01:00:10;;;;;;;1999.90;999.90;;;;;;;17.58;100.00;97858.97;5093447;28;20530;-76
2023/07/04 01:02:37;;;;;;;1999.90;999.90;;;;;;;17.61;100.00;97863.00;5093125;28;20024;-76
2023/07/04 01:05:03;;;;;;;1999.90;999.90;;;;;;;17.47;100.00;97874.38;5093043;28;20507;-78
2023/07/04 01:07:46;;;;;;;1999.90;999.90;;;;;;;17.35;100.00;97865.22;5093116;28;20158;-76
2023/07/04 01:10:40;;;;;;;1999.90;999.90;;;;;;;17.29;100.00;97866.59;5092853;28;20042;-77
2023/07/04 01:13:28;;;;;;;1999.90;999.90;;;;;;;17.25;100.00;97882.25;5088930;28;20459;-77
2023/07/04 01:15:53;;;;;;;1999.90;999.90;;;;;;;17.28;100.00;97884.31;5092930;28;20076;-76
2023/07/04 01:18:19;;;;;;;1999.90;999.90;;;;;;;17.23;100.00;97874.28;5091455;28;20115;-76
2023/07/04 01:20:47;;;;;;;1999.90;999.90;;;;;;;17.28;100.00;97859.44;5092468;28;20107;-75
2023/07/04 01:23:24;;;;;;;1999.90;999.90;;;;;;;17.23;100.00;97874.28;5096498;28;20161;-75
2023/07/04 01:26:16;;;;;;;1999.90;999.90;;;;;;;17.30;100.00;97873.72;5094221;28;20028;-76
2023/07/04 01:28:43;;;;;;;1999.90;999.90;;;;;;;17.26;100.00;97859.00;5091687;28;20380;-75
2023/07/04 01:31:09;;;;;;;1999.90;999.90;;;;;;;17.27;100.00;97869.69;5092746;28;20101;-75
2023/07/04 01:33:35;;;;;;;1999.90;999.90;;;;;;;17.21;100.00;97870.25;5092624;28;20056;-74
2023/07/04 01:36:01;;;;;;;1999.90;999.90;;;;;;;17.07;100.00;97868.56;5092531;28;20027;-76
2023/07/04 01:38:30;;;;;;;1999.90;999.90;;;;;;;17.13;100.00;97869.97;5091008;28;20027;-75
2023/07/04 01:40:56;;;;;;;1999.90;999.90;;;;;;;17.28;100.00;97860.25;5092321;28;20024;-75
2023/07/04 01:43:22;;;;;;;1999.90;999.90;;;;;;;17.32;100.00;97860.38;5091231;28;20024;-78
2023/07/04 01:45:47;;;;;;;1999.90;999.90;;;;;;;17.39;100.00;97846.78;5092291;28;20040;-74
2023/07/04 01:48:13;;;;;;;1999.90;999.90;;;;;;;17.28;100.00;97840.91;5091890;28;20064;-74
2023/07/04 01:50:39;;;;;;;1999.90;999.90;;;;;;;17.31;100.00;97836.63;5092098;28;20507;-77
2023/07/04 01:53:04;;;;;;;1999.90;999.90;;;;;;;17.29;100.00;97836.97;5092064;28;20110;-77
2023/07/04 01:55:30;;;;;;;1999.90;999.90;;;;;;;17.34;100.00;97836.75;5092407;28;20380;-76
2023/07/04 01:57:56;;;;;;;1999.90;999.90;;;;;;;17.36;100.00;97833.63;5100287;28;20063;-77
2023/07/04 02:00:22;;;;;;;1999.90;999.90;;;;;;;17.40;100.00;97831.81;5112694;28;20023;-79
2023/07/04 02:02:47;;;;;;;1999.90;999.90;;;;;;;17.26;100.00;97823.03;5109952;28;20031;-78
2023/07/04 02:05:13;;;;;;;1999.90;999.90;;;;;;;17.39;100.00;97841.25;5092416;28;20028;-78
2023/07/04 02:07:38;;;;;;;1999.90;999.90;;;;;;;17.39;100.00;97844.03;5091710;28;20028;-80
2023/07/04 02:10:04;;;;;;;1999.90;999.90;;;;;;;17.31;100.00;97833.88;5091654;28;20031;-78
2023/07/04 02:12:30;;;;;;;1999.90;999.90;;;;;;;17.34;100.00;97852.53;5091696;28;20024;-79
2023/07/04 02:14:55;;;;;;;1999.90;999.90;;;;;;;17.32;100.00;97844.56;5091652;28;20059;-78
2023/07/04 02:17:21;;;;;;;1999.90;999.90;;;;;;;17.55;100.00;97865.19;5091602;28;20024;-77
2023/07/04 02:19:46;;;;;;;1999.90;999.90;;;;;;;17.53;100.00;97859.16;5091589;28;20422;-78
2023/07/04 02:22:12;;;;;;;1999.90;999.90;;;;;;;17.59;100.00;97862.53;5096169;28;20028;-79
2023/07/04 02:24:37;;;;;;;1999.90;999.90;;;;;;;17.60;100.00;97861.41;5111927;28;20110;-79
2023/07/04 02:27:03;;;;;;;1999.90;999.90;;;;;;;17.57;100.00;97862.09;5111947;28;20015;-78
2023/07/04 02:29:29;;;;;;;1999.90;999.90;;;;;;;17.55;100.00;97843.06;5111730;28;20027;-78
2023/07/04 02:31:54;;;;;;;1999.90;999.90;;;;;;;17.53;100.00;97839.00;5112315;28;20122;-77
2023/07/04 02:34:19;;;;;;;1999.90;999.90;;;;;;;17.58;100.00;97847.91;5112395;27;20381;-79
2023/07/04 02:36:45;;;;;;;1999.90;999.90;;;;;;;17.57;100.00;97845.50;5113691;28;20031;-78
2023/07/04 02:39:10;;;;;;;1999.90;999.90;;;;;;;17.57;100.00;97856.56;5111401;28;20424;-77
2023/07/04 02:41:35;;;;;;;1999.90;999.90;;;;;;;17.57;100.00;97845.50;5110446;28;20035;-79
2023/07/04 02:44:01;;;;;;;1999.90;999.90;;;;;;;17.51;100.00;97850.38;5110038;28;20030;-79
2023/07/04 02:46:26;;;;;;;1999.90;999.90;;;;;;;17.48;100.00;97853.03;5111342;28;20097;-77
2023/07/04 02:48:52;;;;;;;1999.90;999.90;;;;;;;17.43;100.00;97845.78;5111355;28;20047;-79
2023/07/04 02:51:17;;;;;;;1999.90;999.90;;;;;;;17.47;100.00;97868.84;5111695;28;20467;-78
2023/07/04 02:53:42;;;;;;;1999.90;999.90;;;;;;;17.50;100.00;97867.34;5113740;28;20028;-82
2023/07/04 02:56:08;;;;;;;1999.90;999.90;;;;;;;17.45;100.00;97873.06;5112318;28;20081;-78
2023/07/04 02:58:33;;;;;;;1999.90;999.90;;;;;;;17.38;100.00;97875.59;5111168;28;20410;-78
2023/07/04 03:01:00;;;;;;;1999.90;999.90;;;;;;;17.35;100.00;97881.81;5111848;28;20069;-78
2023/07/04 03:03:27;;;;;;;1999.90;999.90;;;;;;;17.45;100.00;97887.72;5111395;28;20503;-78
2023/07/04 03:05:53;;;;;;;1999.90;999.90;;;;;;;17.35;100.00;97871.56;5111133;28;20030;-78
2023/07/04 03:08:18;;;;;;;1999.90;999.90;;;;;;;17.40;100.00;97879.66;5110051;28;20024;-77
2023/07/04 03:10:47;;;;;;;1999.90;999.90;;;;;;;17.32;100.00;97871.44;5111141;28;20373;-78
2023/07/04 03:13:12;;;;;;;1999.90;999.90;;;;;;;17.28;100.00;97870.50;5111149;28;20488;-77
2023/07/04 03:15:38;;;;;;;1999.90;999.90;;;;;;;17.24;100.00;97877.84;5110920;28;20107;-79
2023/07/04 03:18:03;;;;;;;1999.90;999.90;;;;;;;17.25;100.00;97885.00;5111100;28;20065;-77
2023/07/04 03:20:28;;;;;;;1999.90;999.90;;;;;;;17.21;100.00;97873.00;5111378;28;20472;-77
2023/07/04 03:22:54;;;;;;;1999.90;999.90;;;;;;;17.11;100.00;97855.69;5111106;28;20468;-76
2023/07/04 03:25:19;;;;;;;1999.90;999.90;;;;;;;17.19;100.00;97845.72;5111005;28;20098;-78
2023/07/04 03:27:45;;;;;;;1999.90;999.90;;;;;;;17.25;100.00;97844.34;5110939;28;20688;-78
2023/07/04 03:30:11;;;;;;;1999.90;999.90;;;;;;;17.17;100.00;97852.72;5114264;28;20038;-78
2023/07/04 03:32:37;;;;;;;1999.90;999.90;;;;;;;17.15;100.00;97866.88;5115671;28;20537;-78
2023/07/04 03:35:03;;;;;;;1999.90;999.90;;;;;;;17.23;100.00;97857.69;5111558;28;20039;-79
2023/07/04 03:37:32;;;;;;;1999.90;999.90;;;;;;;17.35;100.00;97865.22;5111049;28;20020;-79
2023/07/04 03:40:00;;;;;;;1999.90;999.90;;;;;;;17.31;100.00;97858.75;5111031;28;20024;-79
2023/07/04 03:42:26;;;;;;;1999.90;999.90;;;;;;;17.27;100.00;97860.59;5110694;28;20149;-82
2023/07/04 03:44:52;;;;;;;1999.90;999.90;;;;;;;17.25;100.00;97857.34;5111050;28;20110;-81
2023/07/04 03:47:18;;;;;;;1999.90;999.90;;;;;;;17.31;100.00;97853.22;5111200;28;20048;-80
2023/07/04 03:49:43;;;;;;;1999.90;999.90;;;;;;;17.32;100.00;97860.38;5112163;28;21341;-79
2023/07/04 03:52:09;;;;;;;1999.90;999.90;;;;;;;17.35;100.00;97863.28;5114077;28;20043;-80
2023/07/04 03:54:35;;;;;;;1999.90;999.90;;;;;;;17.37;100.00;97868.44;5115616;28;20041;-79
2023/07/04 03:57:00;;;;;;;1999.90;999.90;;;;;;;17.31;100.00;97864.28;5115522;28;20494;-78
2023/07/04 03:59:26;;;;;;;1999.90;999.90;;;;;;;17.23;100.00;97859.66;5115411;28;20035;-78
2023/07/04 04:01:51;;;;;;;1999.90;999.90;;;;;;;17.24;100.00;97866.78;5115014;28;20024;-78
2023/07/04 04:04:17;;;;;;;1999.90;999.90;;;;;;;17.28;100.00;97871.31;5114857;28;20027;-80
2023/07/04 04:06:42;;;;;;;1999.90;999.90;;;;;;;17.31;100.00;97869.81;5114697;27;20492;-79
2023/07/04 04:09:08;;;;;;;1999.90;999.90;;;;;;;17.27;100.00;97863.34;5114648;28;20031;-79
2023/07/04 04:11:33;;;;;;;1999.90;999.90;;;;;;;17.30;100.00;97863.47;5114512;28;20030;-78
2023/07/04 04:13:58;;;;;;;1999.90;999.90;;;;;;;17.22;100.00;97853.31;5114694;27;20476;-79
2023/07/04 04:16:24;;;;;;;1999.90;999.90;;;;;;;17.11;100.00;97844.66;5114771;28;20016;-79
2023/07/04 04:18:51;;;;;;;1999.90;999.90;;;;;;;17.08;100.00;97853.63;5114726;28;20062;-82
2023/07/04 04:21:16;;;;;;;1999.90;999.90;;;;;;;17.11;100.00;97865.94;5119966;28;20030;-80
2023/07/04 04:23:42;;;;;;;1999.90;999.90;;;;;;;17.09;100.00;97849.72;5114588;28;20019;-80
2023/07/04 04:26:08;;;;;;;1999.90;999.90;;;;;;;17.18;100.00;97857.09;5114359;28;20090;-81
2023/07/04 04:28:33;;;;;;;1999.90;999.90;;;;;;;17.24;100.00;97859.31;5103298;28;20039;-79
2023/07/04 04:30:58;;;;;;;1999.90;999.90;;;;;;;17.21;100.00;97842.59;5094307;28;20028;-79
2023/07/04 04:33:25;;;;;;;1999.90;999.90;;;;;;;17.32;100.00;97854.84;5094102;28;20425;-80
2023/07/04 04:35:51;;;;;;;1999.90;999.90;;;;;;;17.32;100.00;97852.88;5087329;28;20032;-80
2023/07/04 04:38:16;;;;;;;1999.90;999.90;;;;;;;17.38;100.00;97850.72;5074329;28;20370;-80
2023/07/04 04:40:42;;;;;;;1999.90;999.90;;;;;;;17.41;100.00;97847.28;5078272;28;20024;-80
2023/07/04 04:43:08;;;;;;;1999.90;999.90;;;;;;;17.44;100.00;97839.09;5093221;28;20023;-79
2023/07/04 04:45:33;;;;;;;1999.90;999.90;;;;;;;17.57;100.00;97837.19;5093246;28;20115;-82
2023/07/04 04:48:01;;;;;;;1999.90;999.90;;;;;;;17.51;100.00;97831.03;5107896;28;20044;-80
2023/07/04 04:50:30;;;;;;;1999.90;999.90;;;;;;;17.37;100.00;97840.78;5093100;28;20110;-80
2023/07/04 04:52:57;;;;;;;1999.90;999.90;;;;;;;17.34;100.00;97831.22;5087249;28;20068;-79
2023/07/04 04:55:23;;;;;;;1999.90;999.90;;;;;;;17.41;100.00;97838.97;5073137;28;20036;-79
2023/07/04 04:57:48;;;;;;;1999.90;999.90;;;;;;;17.62;100.00;97836.97;5072784;28;20067;-80
2023/07/04 05:00:16;;;;;;;1999.90;999.90;;;;;;;17.78;100.00;97837.09;5103000;28;20028;-86
2023/07/04 05:02:42;;;;;;;1999.90;999.90;;;;;;;17.96;100.00;97839.28;5110527;28;20040;-86
2023/07/04 05:05:07;;;;;;;1999.90;999.90;;;;;;;18.05;100.00;97836.38;5113510;28;20032;-86
2023/07/04 05:07:33;;;;;;;1999.90;999.90;;;;;;;18.44;100.00;97845.94;5109083;28;20008;-82
2023/07/04 05:09:59;;;;;;;1999.90;999.90;;;;;;;18.53;100.00;97860.50;5099475;28;20107;-85
2023/07/04 05:12:24;;;;;;;1999.90;999.90;;;;;;;18.77;100.00;97859.59;5110188;28;20008;-82
2023/07/04 05:14:50;;;;;;;1999.90;999.90;;;;;;;19.48;100.00;97865.25;5105802;28;20020;-85
2023/07/04 05:17:16;;;;;;;1999.90;999.90;;;;;;;19.92;100.00;97875.13;5096016;28;20129;-80
2023/07/04 05:19:42;;;;;;;1999.90;999.90;;;;;;;19.79;100.00;97887.50;5105060;28;20028;-83
2023/07/04 05:22:07;;;;;;;1999.90;999.90;;;;;;;19.67;100.00;97890.34;5104362;28;20016;-84
2023/07/04 05:24:32;;;;;;;1999.90;999.90;;;;;;;19.34;100.00;97893.38;5100906;28;20039;-81
2023/07/04 05:26:58;;;;;;;1999.90;999.90;;;;;;;19.18;100.00;97898.88;5093405;28;20020;-78
2023/07/04 05:29:23;;;;;;;1999.90;999.90;;;;;;;19.12;100.00;97908.59;5093025;28;20019;-80
2023/07/04 05:31:49;;;;;;;1999.90;999.90;;;;;;;19.02;100.00;97906.31;5093330;28;20593;-79
2023/07/04 05:34:14;;;;;;;1999.90;999.90;;;;;;;18.94;100.00;97915.59;5093882;28;20038;-79
2023/07/04 05:36:39;;;;;;;1999.90;999.90;;;;;;;18.90;100.00;97914.66;5094166;28;20867;-81
2023/07/04 05:39:06;;;;;;;1999.90;999.90;;;;;;;18.90;100.00;97914.66;5096480;28;20028;-83
2023/07/04 05:41:34;;;;;;;1999.90;999.90;;;;;;;18.86;100.00;97915.75;5096665;28;20035;-82
2023/07/04 05:44:02;;;;;;;1999.90;999.90;;;;;;;18.83;100.00;97908.91;5095844;28;20164;-80
2023/07/04 05:46:28;;;;;;;1999.90;999.90;;;;;;;18.90;100.00;97911.91;5092647;28;20043;-80
2023/07/04 05:48:54;;;;;;;1999.90;999.90;;;;;;;18.92;100.00;97914.34;5091967;28;20097;-78
2023/07/04 05:51:20;;;;;;;1999.90;999.90;;;;;;;18.99;100.00;97906.22;5092211;28;20028;-79
2023/07/04 05:53:48;;;;;;;1999.90;999.90;;;;;;;19.05;100.00;97904.81;5092256;28;20082;-80
2023/07/04 05:56:17;;;;;;;1999.90;999.90;;;;;;;18.98;100.00;97910.94;5093255;28;20028;-82
2023/07/04 05:58:51;;;;;;;1999.90;999.90;;;;;;;19.10;100.00;97922.03;5093576;28;20097;-79
2023/07/04 06:01:44;;;;;;;1999.90;999.90;;;;;;;19.10;100.00;97919.25;5094010;28;20643;-81
2023/07/04 06:04:11;;;;;;;1999.90;999.90;;;;;;;19.10;100.00;97912.88;5092883;28;20036;-78
2023/07/04 06:06:42;;;;;;;1999.90;999.90;;;;;;;19.18;100.00;97921.06;5096515;28;20461;-81
2023/07/04 06:09:13;;;;;;;1999.90;999.90;;;;;;;19.11;100.00;97926.38;5092565;28;20097;-77
2023/07/04 06:11:45;;;;;;;1999.90;999.90;;;;;;;19.19;100.00;97919.91;5093251;28;20028;-81
2023/07/04 06:14:17;;;;;;;1999.90;999.90;;;;;;;19.37;100.00;97930.69;5092322;28;20027;-79
2023/07/04 06:16:42;;;;;;;1999.90;999.90;;;;;;;19.47;100.00;97930.22;5091979;28;20020;-79
2023/07/04 06:19:07;;;;;;;1999.90;999.90;;;;;;;19.58;100.00;97942.41;5075989;28;20039;-78
2023/07/04 06:21:33;;;;;;;1999.90;999.90;;;;;;;19.55;100.00;97940.34;5071390;28;20028;-78
2023/07/04 06:23:58;;;;;;;1999.90;999.90;;;;;;;19.42;100.00;97952.69;5071345;28;20056;-79
2023/07/04 06:26:27;;;;;;;1999.90;999.90;;;;;;;19.32;100.00;97947.59;5071300;28;20044;-80
2023/07/04 06:28:54;;;;;;;1999.90;999.90;;;;;;;19.38;100.00;97951.72;5071392;28;20025;-79
2023/07/04 06:31:20;;;;;;;1999.90;999.90;;;;;;;19.44;100.00;97964.22;5071166;28;20085;-80
2023/07/04 06:33:46;;;;;;;1999.90;999.90;;;;;;;19.37;100.00;97961.19;5071657;28;20025;-80
2023/07/04 06:36:13;;;;;;;1999.90;999.90;;;;;;;19.52;100.00;97960.47;5070977;28;20024;-78
2023/07/04 06:38:39;;;;;;;1999.90;999.90;;;;;;;19.67;100.00;97965.28;5071394;28;20473;-78
2023/07/04 06:41:11;;;;;;;1999.90;999.90;;;;;;;19.84;100.00;97964.94;5071078;28;20032;-78
2023/07/04 06:43:43;;;;;;;1999.90;999.90;;;;;;;20.07;100.00;97963.22;5071816;28;20028;-81
2023/07/04 06:46:10;;;;;;;1999.90;999.90;;;;;;;20.36;100.00;97975.06;5071324;28;20028;-77
2023/07/04 06:48:36;;;;;;;1999.90;999.90;;;;;;;20.50;100.00;97978.19;5070815;28;20045;-76
2023/07/04 06:51:04;;;;;;;1999.90;999.90;;;;;;;20.67;100.00;97984.22;5071823;28;20036;-79
2023/07/04 06:53:30;;;;;;;1999.90;999.90;;;;;;;20.72;100.00;97972.00;5071964;28;20043;-80
2023/07/04 06:56:07;;;;;;;1999.90;999.90;;;;;;;20.89;100.00;97974.38;5072203;28;20044;-80
2023/07/04 06:58:35;;;;;;;1999.90;999.90;;;;;;;21.04;100.00;97981.88;5072124;28;20032;-80
2023/07/04 07:01:02;;;;;;;1999.90;999.90;;;;;;;20.97;100.00;97983.69;5073473;28;20028;-83
2023/07/04 07:03:28;;;;;;;1999.90;999.90;;;;;;;21.23;100.00;97986.72;5073843;28;20036;-82
2023/07/04 07:05:54;;;;;;;1999.90;999.90;;;;;;;21.06;100.00;97987.88;5073913;28;20540;-82
2023/07/04 07:08:19;;;;;;;1999.90;999.90;;;;;;;21.05;100.00;97986.25;5072232;28;20098;-80
2023/07/04 07:10:53;;;;;;;1999.90;999.90;;;;;;;21.14;100.00;97995.25;5072887;28;20083;-81
2023/07/04 07:13:18;;;;;;;1999.90;999.90;;;;;;;21.20;100.00;97993.81;5071496;28;20123;-80
2023/07/04 07:15:44;;;;;;;1999.90;999.90;;;;;;;21.38;100.00;97990.59;5072429;28;20104;-82
2023/07/04 07:18:09;;;;;;;1999.90;999.90;;;;;;;21.11;100.00;97989.63;5072505;28;20103;-82
2023/07/04 07:20:34;;;;;;;1999.90;999.90;;;;;;;21.17;100.00;97988.97;5071132;28;20032;-79
2023/07/04 07:23:00;;;;;;;1999.90;999.90;;;;;;;21.54;100.00;97977.41;5071179;28;20012;-81
2023/07/04 07:25:25;;;;;;;1999.90;999.90;;;;;;;21.47;100.00;97975.28;5070591;28;20028;-81
2023/07/04 07:27:52;;;;;;;1999.90;999.90;;;;;;;21.26;100.00;97967.31;5071628;28;20021;-81
2023/07/04 07:30:17;;;;;;;1999.90;999.90;;;;;;;21.10;100.00;97976.88;5071800;28;20508;-80
2023/07/04 07:32:43;;;;;;;1999.90;999.90;;;;;;;20.96;100.00;97971.75;5077839;28;20028;-80
2023/07/04 07:35:09;;;;;;;1999.90;999.90;;;;;;;20.74;100.00;97978.78;5076333;28;20024;-81
2023/07/04 07:37:35;;;;;;;1999.90;999.90;;;;;;;20.52;100.00;97973.06;5071491;28;20453;-80
2023/07/04 07:40:00;;;;;;;1999.90;999.90;;;;;;;20.69;100.00;97978.28;5071089;28;20101;-80
2023/07/04 07:42:26;;;;;;;1999.90;999.90;;;;;;;21.14;100.00;97986.91;5070751;28;20059;-80
2023/07/04 07:44:51;;;;;;;1999.90;999.90;;;;;;;22.02;100.00;97995.50;5071111;28;20025;-77
2023/07/04 07:47:16;;;;;;;1999.90;999.90;;;;;;;22.49;100.00;97986.81;5073744;28;20045;-78
2023/07/04 07:49:42;;;;;;;1999.90;999.90;;;;;;;23.52;100.00;97995.59;5076869;28;20485;-77
2023/07/04 07:52:08;;;;;;;1999.90;999.90;;;;;;;23.38;100.00;97987.00;5070310;28;20068;-78
2023/07/04 07:54:35;;;;;;;1999.90;999.90;;;;;;;23.75;100.00;97993.47;5069987;28;20099;-76
2023/07/04 07:57:00;;;;;;;1999.90;999.90;;;;;;;24.15;100.00;97997.56;5068914;28;20020;-80
2023/07/04 07:59:26;;;;;;;1999.90;999.90;;;;;;;23.05;100.00;97986.94;5070073;28;20082;-76
2023/07/04 08:01:52;;;;;;;1999.90;999.90;;;;;;;25.69;100.00;97999.94;5070174;28;20044;-76
2023/07/04 08:04:18;;;;;;;1999.90;999.90;;;;;;;26.86;100.00;98011.50;5070602;28;20020;-79
2023/07/04 08:06:45;;;;;;;1999.90;999.90;;;;;;;27.82;83.70;98001.66;5069925;28;20354;-77
2023/07/04 08:09:15;;;;;;;1999.90;999.90;;;;;;;28.85;74.07;98012.38;5069941;28;20056;-78
2023/07/04 08:11:45;;;;;;;1999.90;999.90;;;;;;;27.53;77.88;98012.25;5069801;28;20087;-78
2023/07/04 08:14:15;;;;;;;1999.90;999.90;;;;;;;24.60;100.00;98001.97;5070010;28;20071;-79
2023/07/04 08:16:49;;;;;;;1999.90;999.90;;;;;;;25.31;90.44;98008.94;5069885;28;20016;-78
2023/07/04 08:19:17;;;;;;;1999.90;999.90;;;;;;;25.63;89.26;98012.75;5069827;28;20025;-76
2023/07/04 08:21:43;;;;;;;1999.90;999.90;;;;;;;25.66;90.40;98016.75;5069965;28;20078;-75
2023/07/04 08:24:12;;;;;;;1999.90;999.90;;;;;;;25.53;88.26;98013.47;5069950;28;20036;-79
2023/07/04 08:26:44;;;;;;;1999.90;999.90;;;;;;;26.30;83.46;98013.00;5070029;28;20032;-77
2023/07/04 08:29:10;;;;;;;1999.90;999.90;;;;;;;27.25;76.96;98017.09;5069985;28;20529;-75
2023/07/04 08:31:36;;;;;;;1999.90;999.90;;;;;;;27.34;75.38;98015.47;5069912;28;20127;-77
2023/07/04 08:34:02;;;;;;;1999.90;999.90;;;;;;;24.27;92.66;97998.09;5070283;28;20025;-79
2023/07/04 08:36:28;;;;;;;1999.90;999.90;;;;;;;26.41;81.54;98008.22;5070380;28;20048;-76
2023/07/04 08:38:54;;;;;;;1999.90;999.90;;;;;;;27.03;80.06;98013.50;5073459;28;20055;-79
2023/07/04 08:41:41;;;;;;;1999.90;999.90;;;;;;;28.12;74.45;98032.94;5073403;28;20028;-79
2023/07/04 08:44:18;;;;;;;1999.90;999.90;;;;;;;28.56;71.30;98028.66;5073222;28;20557;-77
2023/07/04 08:46:47;;;;;;;1999.90;999.90;;;;;;;29.55;66.40;98022.19;5073397;28;20029;-78
2023/07/04 08:49:50;;;;;;;1999.90;999.90;;;;;;;27.20;75.15;98014.66;5073086;28;20076;-77
2023/07/04 08:52:23;;;;;;;1999.90;999.90;;;;;;;28.48;73.03;98022.25;5070421;28;20135;-78
2023/07/04 08:54:49;;;;;;;1999.90;999.90;;;;;;;28.33;71.19;98025.56;5073352;28;20048;-76
2023/07/04 08:57:18;;;;;;;1999.90;999.90;;;;;;;28.82;67.61;98036.50;5073308;28;20120;-77
2023/07/04 08:59:45;;;;;;;1999.90;999.90;;;;;;;29.40;66.36;98044.09;5073145;28;20032;-79
2023/07/04 09:02:25;;;;;;;1999.90;999.90;;;;;;;29.82;63.25;98040.06;5073096;28;20032;-77
2023/07/04 09:05:05;;;;;;;1999.90;999.90;;;;;;;30.58;60.05;98044.28;5073098;28;20610;-75
2023/07/04 09:08:05;;;;;;;1999.90;999.90;;;;;;;26.38;81.04;98027.84;5073628;28;20035;-81
2023/07/04 09:10:30;;;;;;;1999.90;999.90;;;;;;;26.10;82.80;98020.13;5073139;28;20037;-77
2023/07/04 09:12:56;;;;;;;1999.90;999.90;;;;;;;26.52;81.27;98023.06;5073751;28;20029;-82
2023/07/04 09:15:51;;;;;;;1999.90;999.90;;;;;;;26.19;83.91;98019.81;5077065;28;20113;-77
2023/07/04 09:18:34;;;;;;;1999.90;999.90;;;;;;;26.27;84.41;98025.03;5057093;28;20036;-76
2023/07/04 09:21:08;;;;;;;1999.90;999.90;;;;;;;25.98;84.01;98015.69;5072733;28;20427;-75
2023/07/04 09:23:34;;;;;;;1999.90;999.90;;;;;;;24.92;89.88;98014.28;5073711;28;20130;-78
2023/07/04 09:25:59;;;;;;;1999.90;999.90;;;;;;;24.66;96.00;98006.84;5073558;28;20493;-78
2023/07/04 09:28:26;;;;;;;1999.90;999.90;;;;;;;26.27;83.50;98019.41;5087276;28;20047;-76
2023/07/04 09:30:54;;;;;;;1999.90;999.90;;;;;;;25.02;90.86;98017.16;5100924;28;20128;-78
2023/07/04 09:33:22;;;;;;;1999.90;999.90;;;;;;;26.84;76.89;98033.56;5096799;28;20016;-77
2023/07/04 09:35:48;;;;;;;1999.90;999.90;;;;;;;29.73;62.54;98051.78;5096526;28;20074;-77
2023/07/04 09:38:13;;;;;;;1999.90;999.90;;;;;;;28.52;62.86;98042.75;5104995;28;20048;-78
2023/07/04 09:40:48;;;;;;;1999.90;999.90;;;;;;;26.89;70.98;98033.97;5099977;28;20072;-77
2023/07/04 09:43:33;;;;;;;1999.90;999.90;;;;;;;24.78;91.09;98017.72;5097936;28;20074;-77
2023/07/04 09:46:17;;;;;;;1999.90;999.90;;;;;;;26.51;81.17;98024.28;5084135;28;20085;-76
2023/07/04 09:48:43;;;;;;;1999.90;999.90;;;;;;;26.42;77.20;98018.25;5090520;28;20051;-79
2023/07/04 09:51:35;;;;;;;1999.90;999.90;;;;;;;27.67;71.15;98015.00;5093467;28;20036;-78
2023/07/04 09:54:27;;;;;;;1999.90;999.90;;;;;;;28.93;66.13;98022.34;5080939;28;20059;-74
2023/07/04 09:56:52;;;;;;;1999.90;999.90;;;;;;;28.19;67.40;98023.66;5109144;28;20062;-78
2023/07/04 09:59:27;;;;;;;1999.90;999.90;;;;;;;27.62;69.58;98015.41;5106923;28;20015;-78
2023/07/04 10:01:57;;;;;;;1999.90;999.90;;;;;;;26.65;75.05;98015.06;5095396;28;20135;-75
2023/07/04 10:04:35;;;;;;;1999.90;999.90;;;;;;;27.17;72.27;98010.66;5105104;28;20129;-79
2023/07/04 10:07:04;;;;;;;1999.90;999.90;;;;;;;25.84;80.35;98001.66;5104029;28;20492;-79
2023/07/04 10:09:31;;;;;;;1999.90;999.90;;;;;;;25.22;82.26;98003.69;5093941;28;20035;-77
2023/07/04 10:12:14;;;;;;;1999.90;999.90;;;;;;;24.11;93.50;97999.47;5076965;28;20534;-77
2023/07/04 10:14:52;;;;;;;1999.90;999.90;;;;;;;23.67;96.73;98002.97;5101320;28;20039;-78
2023/07/04 10:17:28;;;;;;;1999.90;999.90;;;;;;;24.62;89.69;97999.63;5105563;28;20106;-78
2023/07/04 10:20:04;;;;;;;1999.90;999.90;;;;;;;25.39;83.61;98002.19;5094918;28;20015;-76
2023/07/04 10:22:33;;;;;;;1999.90;999.90;;;;;;;26.95;74.60;98004.25;5107236;28;20475;-78
2023/07/04 10:25:00;;;;;;;1999.90;999.90;;;;;;;27.33;71.05;98008.22;5111852;28;20015;-76
2023/07/04 10:27:34;;;;;;;1999.90;999.90;;;;;;;28.28;68.29;98015.56;5111034;28;20038;-75
2023/07/04 10:30:02;;;;;;;1999.90;999.90;;;;;;;28.44;66.12;98009.41;5111097;28;20019;-75
2023/07/04 10:32:28;;;;;;;1999.90;999.90;;;;;;;27.28;68.53;98005.03;5111804;28;20035;-77
2023/07/04 10:34:55;;;;;;;1999.90;999.90;;;;;;;26.51;73.69;97993.41;5111750;28;20034;-75
2023/07/04 10:37:28;;;;;;;1999.90;999.90;;;;;;;25.51;77.11;97983.06;5111790;28;20081;-75
2023/07/04 10:39:57;;;;;;;1999.90;999.90;;;;;;;24.81;81.07;97979.78;5111768;28;20023;-74
2023/07/04 10:42:29;;;;;;;1999.90;999.90;;;;;;;24.99;82.48;97972.34;5111588;28;20042;-75
2023/07/04 10:44:56;;;;;;;1999.90;999.90;;;;;;;25.07;82.86;97979.59;5111472;28;20638;-75
2023/07/04 10:47:32;;;;;;;1999.90;999.90;;;;;;;25.08;81.52;97969.19;5111448;28;20563;-75
2023/07/04 10:50:05;;;;;;;1999.90;999.90;;;;;;;26.01;76.86;97978.44;5111560;28;20118;-74
2023/07/04 10:52:33;;;;;;;1999.90;999.90;;;;;;;25.53;80.29;97958.25;5111485;28;20106;-75
2023/07/04 10:55:00;;;;;;;1999.90;999.90;;;;;;;25.90;79.32;97971.22;5111821;28;20472;-74